sensor_id;sensor_type;location;lat;lon;timestamp;temperature;humidity
15298;DHT22;7750;48.796;9.026;2023-08-06T01:45:22;18.40;75.90
15298;DHT22;7750;48.796;9.026;2023-08-06T02:06:33;18.20;75.50
15298;DHT22;7750;48.796;9.026;2023-08-06T02:11:46;18.10;75.20
15298;DHT22;7750;48.796;9.026;2023-08-06T02:54:01;17.70;76.10
15298;DHT22;7750;48.796;9.026;2023-08-06T03:04:32;17.70;76.50
15298;DHT22;7750;48.796;9.026;2023-08-06T03:20:11;17.60;76.70
15298;DHT22;7750;48.796;9.026;2023-08-06T03:25:11;17.70;77.10
15298;DHT22;7750;48.796;9.026;2023-08-06T03:30:13;17.60;76.90
15298;DHT22;7750;48.796;9.026;2023-08-06T03:45:30;17.60;77.70
15298;DHT22;7750;48.796;9.026;2023-08-06T03:50:33;17.60;77.80
15298;DHT22;7750;48.796;9.026;2023-08-06T03:55:39;17.60;78.30
15298;DHT22;7750;48.796;9.026;2023-08-06T04:00:40;17.60;78.60
15298;DHT22;7750;48.796;9.026;2023-08-06T05:26:29;17.60;80.40
15298;DHT22;7750;48.796;9.026;2023-08-06T06:56:16;17.40;81.00
15298;DHT22;7750;48.796;9.026;2023-08-06T07:01:18;17.50;80.80
15298;DHT22;7750;48.796;9.026;2023-08-06T07:06:32;17.50;80.40
15298;DHT22;7750;48.796;9.026;2023-08-06T07:11:33;17.50;81.70
15298;DHT22;7750;48.796;9.026;2023-08-06T07:16:41;17.50;80.90
15298;DHT22;7750;48.796;9.026;2023-08-06T07:21:41;17.50;81.80
15298;DHT22;7750;48.796;9.026;2023-08-06T07:26:42;17.40;81.60
15298;DHT22;7750;48.796;9.026;2023-08-06T07:31:43;17.40;81.70
15298;DHT22;7750;48.796;9.026;2023-08-06T07:53:26;17.50;82.80
15298;DHT22;7750;48.796;9.026;2023-08-06T08:08:52;17.50;83.70
15298;DHT22;7750;48.796;9.026;2023-08-06T08:13:56;17.60;84.90
15298;DHT22;7750;48.796;9.026;2023-08-06T08:19:05;17.80;83.70
15298;DHT22;7750;48.796;9.026;2023-08-06T08:24:06;17.90;84.60
15298;DHT22;7750;48.796;9.026;2023-08-06T08:29:07;18.00;83.00
15298;DHT22;7750;48.796;9.026;2023-08-06T08:34:08;18.00;82.40
15298;DHT22;7750;48.796;9.026;2023-08-06T08:39:08;18.00;82.60
15298;DHT22;7750;48.796;9.026;2023-08-06T08:44:10;18.10;83.00
15298;DHT22;7750;48.796;9.026;2023-08-06T08:49:15;18.10;82.50
15298;DHT22;7750;48.796;9.026;2023-08-06T08:59:33;18.30;82.90
15298;DHT22;7750;48.796;9.026;2023-08-06T09:04:45;18.30;82.30
15298;DHT22;7750;48.796;9.026;2023-08-06T09:09:49;18.30;82.20
15298;DHT22;7750;48.796;9.026;2023-08-06T09:14:52;18.30;82.00
15298;DHT22;7750;48.796;9.026;2023-08-06T09:19:54;18.70;80.60
15298;DHT22;7750;48.796;9.026;2023-08-06T09:24:56;18.50;81.00
15298;DHT22;7750;48.796;9.026;2023-08-06T09:29:57;18.30;81.80
15298;DHT22;7750;48.796;9.026;2023-08-06T09:34:57;18.30;81.50
15298;DHT22;7750;48.796;9.026;2023-08-06T09:39:58;18.30;82.00
15298;DHT22;7750;48.796;9.026;2023-08-06T09:45:06;18.20;82.90
15298;DHT22;7750;48.796;9.026;2023-08-06T09:50:19;18.20;82.40
15298;DHT22;7750;48.796;9.026;2023-08-06T09:55:20;18.20;82.60
15298;DHT22;7750;48.796;9.026;2023-08-06T10:00:22;18.20;83.00
15298;DHT22;7750;48.796;9.026;2023-08-06T10:05:26;18.20;82.90
15298;DHT22;7750;48.796;9.026;2023-08-06T10:10:28;18.10;82.10
15298;DHT22;7750;48.796;9.026;2023-08-06T10:15:31;18.20;83.30
15298;DHT22;7750;48.796;9.026;2023-08-06T10:20:34;18.20;82.90
15298;DHT22;7750;48.796;9.026;2023-08-06T10:25:36;18.20;83.50
15298;DHT22;7750;48.796;9.026;2023-08-06T10:31:05;18.20;83.10
15298;DHT22;7750;48.796;9.026;2023-08-06T10:36:08;18.20;83.00
15298;DHT22;7750;48.796;9.026;2023-08-06T10:41:27;18.20;83.80
15298;DHT22;7750;48.796;9.026;2023-08-06T10:46:31;18.30;84.00
15298;DHT22;7750;48.796;9.026;2023-08-06T10:51:32;18.30;83.80
15298;DHT22;7750;48.796;9.026;2023-08-06T10:56:39;18.30;81.90
15298;DHT22;7750;48.796;9.026;2023-08-06T11:01:43;18.30;81.40
15298;DHT22;7750;48.796;9.026;2023-08-06T11:06:43;18.30;81.20
15298;DHT22;7750;48.796;9.026;2023-08-06T11:11:48;18.20;81.00
15298;DHT22;7750;48.796;9.026;2023-08-06T11:16:48;18.20;80.60
15298;DHT22;7750;48.796;9.026;2023-08-06T11:21:51;18.20;81.20
15298;DHT22;7750;48.796;9.026;2023-08-06T11:26:54;18.10;81.10
15298;DHT22;7750;48.796;9.026;2023-08-06T11:32:03;18.10;81.40
15298;DHT22;7750;48.796;9.026;2023-08-06T11:37:06;18.20;80.10
15298;DHT22;7750;48.796;9.026;2023-08-06T11:42:12;18.20;79.20
15298;DHT22;7750;48.796;9.026;2023-08-06T11:47:15;18.00;78.50
15298;DHT22;7750;48.796;9.026;2023-08-06T11:57:44;17.80;79.80
15298;DHT22;7750;48.796;9.026;2023-08-06T12:02:43;17.80;79.00
15298;DHT22;7750;48.796;9.026;2023-08-06T12:07:50;17.60;79.60
15298;DHT22;7750;48.796;9.026;2023-08-06T12:12:54;17.50;79.80
15298;DHT22;7750;48.796;9.026;2023-08-06T12:17:55;17.40;80.10
15298;DHT22;7750;48.796;9.026;2023-08-06T12:23:04;17.40;80.10
15298;DHT22;7750;48.796;9.026;2023-08-06T12:28:07;17.40;80.30
15298;DHT22;7750;48.796;9.026;2023-08-06T12:33:09;17.40;79.70
15298;DHT22;7750;48.796;9.026;2023-08-06T12:38:12;17.40;79.70
15298;DHT22;7750;48.796;9.026;2023-08-06T12:43:22;17.60;80.00
15298;DHT22;7750;48.796;9.026;2023-08-06T12:48:22;17.80;80.30
15298;DHT22;7750;48.796;9.026;2023-08-06T12:53:26;17.90;78.10
15298;DHT22;7750;48.796;9.026;2023-08-06T12:58:27;18.10;77.60
15298;DHT22;7750;48.796;9.026;2023-08-06T13:03:27;18.20;77.40
15298;DHT22;7750;48.796;9.026;2023-08-06T13:08:28;18.20;77.00
15298;DHT22;7750;48.796;9.026;2023-08-06T13:13:28;18.30;77.80
15298;DHT22;7750;48.796;9.026;2023-08-06T13:18:29;18.40;76.80
15298;DHT22;7750;48.796;9.026;2023-08-06T13:23:31;18.60;76.00
15298;DHT22;7750;48.796;9.026;2023-08-06T13:28:32;18.70;74.80
15298;DHT22;7750;48.796;9.026;2023-08-06T13:33:32;18.70;74.30
15298;DHT22;7750;48.796;9.026;2023-08-06T13:38:39;18.80;73.50
15298;DHT22;7750;48.796;9.026;2023-08-06T13:43:39;18.70;73.40
15298;DHT22;7750;48.796;9.026;2023-08-06T13:48:40;18.70;73.40
15298;DHT22;7750;48.796;9.026;2023-08-06T13:53:44;18.60;73.50
15298;DHT22;7750;48.796;9.026;2023-08-06T13:58:45;18.60;74.00
15298;DHT22;7750;48.796;9.026;2023-08-06T14:03:45;18.70;73.30
15298;DHT22;7750;48.796;9.026;2023-08-06T14:08:49;18.70;72.80
15298;DHT22;7750;48.796;9.026;2023-08-06T14:13:54;18.70;72.80
15298;DHT22;7750;48.796;9.026;2023-08-06T14:19:04;18.80;73.50
15298;DHT22;7750;48.796;9.026;2023-08-06T14:24:05;18.90;73.80
15298;DHT22;7750;48.796;9.026;2023-08-06T14:29:14;19.10;72.70
15298;DHT22;7750;48.796;9.026;2023-08-06T14:34:15;19.20;72.30
15298;DHT22;7750;48.796;9.026;2023-08-06T14:39:22;19.20;71.30
15298;DHT22;7750;48.796;9.026;2023-08-06T14:44:32;19.10;73.30
15298;DHT22;7750;48.796;9.026;2023-08-06T14:49:33;19.10;74.40
15298;DHT22;7750;48.796;9.026;2023-08-06T14:54:34;18.90;75.00
15298;DHT22;7750;48.796;9.026;2023-08-06T14:59:35;18.70;74.60
15298;DHT22;7750;48.796;9.026;2023-08-06T15:04:39;18.50;75.60
15298;DHT22;7750;48.796;9.026;2023-08-06T15:09:39;18.40;76.80
15298;DHT22;7750;48.796;9.026;2023-08-06T15:14:40;18.30;76.30
15298;DHT22;7750;48.796;9.026;2023-08-06T15:19:46;18.40;76.80
15298;DHT22;7750;48.796;9.026;2023-08-06T15:24:48;18.50;77.00
15298;DHT22;7750;48.796;9.026;2023-08-06T15:29:49;18.60;75.00
15298;DHT22;7750;48.796;9.026;2023-08-06T15:34:51;18.80;75.70
15298;DHT22;7750;48.796;9.026;2023-08-06T15:39:54;19.00;74.20
15298;DHT22;7750;48.796;9.026;2023-08-06T15:44:55;19.10;73.10
15298;DHT22;7750;48.796;9.026;2023-08-06T15:49:55;19.20;73.50
15298;DHT22;7750;48.796;9.026;2023-08-06T15:54:56;19.30;72.10
15298;DHT22;7750;48.796;9.026;2023-08-06T16:05:43;19.40;72.00
15298;DHT22;7750;48.796;9.026;2023-08-06T16:10:43;19.20;71.40
15298;DHT22;7750;48.796;9.026;2023-08-06T16:15:45;19.20;71.90
15298;DHT22;7750;48.796;9.026;2023-08-06T16:20:46;19.20;71.30
15298;DHT22;7750;48.796;9.026;2023-08-06T16:25:47;19.20;70.50
15298;DHT22;7750;48.796;9.026;2023-08-06T16:30:48;19.00;70.70
15298;DHT22;7750;48.796;9.026;2023-08-06T16:35:49;18.80;71.50
15298;DHT22;7750;48.796;9.026;2023-08-06T16:40:53;18.70;71.70
15298;DHT22;7750;48.796;9.026;2023-08-06T16:45:54;18.60;70.80
15298;DHT22;7750;48.796;9.026;2023-08-06T16:50:58;18.50;72.70
15298;DHT22;7750;48.796;9.026;2023-08-06T16:55:58;18.30;73.90
15298;DHT22;7750;48.796;9.026;2023-08-06T17:00:59;18.10;74.20
15298;DHT22;7750;48.796;9.026;2023-08-06T17:06:05;18.00;75.40
15298;DHT22;7750;48.796;9.026;2023-08-06T17:11:06;17.80;76.00
15298;DHT22;7750;48.796;9.026;2023-08-06T17:16:06;17.70;77.00
15298;DHT22;7750;48.796;9.026;2023-08-06T17:21:07;17.50;78.00
15298;DHT22;7750;48.796;9.026;2023-08-06T17:26:07;17.50;77.70
15298;DHT22;7750;48.796;9.026;2023-08-06T17:31:08;17.40;77.70
15298;DHT22;7750;48.796;9.026;2023-08-06T17:36:09;17.30;78.50
15298;DHT22;7750;48.796;9.026;2023-08-06T17:41:09;17.20;79.10
15298;DHT22;7750;48.796;9.026;2023-08-06T17:46:10;17.10;79.30
15298;DHT22;7750;48.796;9.026;2023-08-06T17:51:10;17.10;79.60
15298;DHT22;7750;48.796;9.026;2023-08-06T17:56:11;17.10;78.90
15298;DHT22;7750;48.796;9.026;2023-08-06T18:01:12;17.00;79.00
15298;DHT22;7750;48.796;9.026;2023-08-06T18:06:12;17.00;78.80
15298;DHT22;7750;48.796;9.026;2023-08-06T18:11:13;16.90;79.00
15298;DHT22;7750;48.796;9.026;2023-08-06T18:16:14;16.90;79.00
15298;DHT22;7750;48.796;9.026;2023-08-06T18:21:14;16.80;79.00
15298;DHT22;7750;48.796;9.026;2023-08-06T18:26:15;16.80;79.60
15298;DHT22;7750;48.796;9.026;2023-08-06T18:31:15;16.70;79.70
15298;DHT22;7750;48.796;9.026;2023-08-06T18:36:17;16.70;79.80
15298;DHT22;7750;48.796;9.026;2023-08-06T18:41:18;16.60;79.70
15298;DHT22;7750;48.796;9.026;2023-08-06T18:46:19;16.60;80.20
15298;DHT22;7750;48.796;9.026;2023-08-06T18:51:20;16.60;79.40
15298;DHT22;7750;48.796;9.026;2023-08-06T18:56:20;16.50;79.40
15298;DHT22;7750;48.796;9.026;2023-08-06T19:01:21;16.50;79.00
15298;DHT22;7750;48.796;9.026;2023-08-06T19:06:22;16.50;79.50
15298;DHT22;7750;48.796;9.026;2023-08-06T19:11:24;16.50;79.40
15298;DHT22;7750;48.796;9.026;2023-08-06T19:16:24;16.50;79.20
15298;DHT22;7750;48.796;9.026;2023-08-06T19:21:25;16.50;78.80
15298;DHT22;7750;48.796;9.026;2023-08-06T19:26:26;16.50;78.70
15298;DHT22;7750;48.796;9.026;2023-08-06T19:31:26;16.50;78.60
15298;DHT22;7750;48.796;9.026;2023-08-06T19:36:27;16.50;78.20
15298;DHT22;7750;48.796;9.026;2023-08-06T19:41:27;16.50;78.00
15298;DHT22;7750;48.796;9.026;2023-08-06T19:46:29;16.50;77.70
15298;DHT22;7750;48.796;9.026;2023-08-06T19:56:40;16.50;77.00
15298;DHT22;7750;48.796;9.026;2023-08-06T20:02:21;16.50;76.30
15298;DHT22;7750;48.796;9.026;2023-08-06T20:12:56;16.50;75.90
15298;DHT22;7750;48.796;9.026;2023-08-06T20:17:56;16.50;76.70
15298;DHT22;7750;48.796;9.026;2023-08-06T20:22:59;16.40;76.40
15298;DHT22;7750;48.796;9.026;2023-08-06T20:27:59;16.30;76.70
15298;DHT22;7750;48.796;9.026;2023-08-06T20:33:01;16.20;77.20
15298;DHT22;7750;48.796;9.026;2023-08-06T20:38:02;16.10;77.90
15298;DHT22;7750;48.796;9.026;2023-08-06T20:43:05;16.00;78.80
15298;DHT22;7750;48.796;9.026;2023-08-06T20:48:11;15.90;79.60
15298;DHT22;7750;48.796;9.026;2023-08-06T20:58:38;15.70;81.20
15298;DHT22;7750;48.796;9.026;2023-08-06T21:03:49;15.60;81.00
15298;DHT22;7750;48.796;9.026;2023-08-06T21:08:50;15.60;80.70
15298;DHT22;7750;48.796;9.026;2023-08-06T21:18:58;15.40;81.40
15298;DHT22;7750;48.796;9.026;2023-08-06T21:24:01;15.40;81.90
15298;DHT22;7750;48.796;9.026;2023-08-06T21:29:04;15.30;82.20
15298;DHT22;7750;48.796;9.026;2023-08-06T21:34:04;15.30;82.00
15298;DHT22;7750;48.796;9.026;2023-08-06T21:39:20;15.20;82.30
15298;DHT22;7750;48.796;9.026;2023-08-06T21:50:18;15.20;83.50
15298;DHT22;7750;48.796;9.026;2023-08-06T21:55:24;15.10;82.90
15298;DHT22;7750;48.796;9.026;2023-08-06T22:00:51;15.00;82.60
15298;DHT22;7750;48.796;9.026;2023-08-06T22:05:58;15.00;83.70
15298;DHT22;7750;48.796;9.026;2023-08-06T22:17:35;15.00;83.50
15298;DHT22;7750;48.796;9.026;2023-08-06T22:50:18;15.00;84.30
15298;DHT22;7750;48.796;9.026;2023-08-06T22:55:49;15.00;85.00
15298;DHT22;7750;48.796;9.026;2023-08-06T23:01:51;15.00;85.20
15298;DHT22;7750;48.796;9.026;2023-08-06T23:13:12;14.90;84.70
15298;DHT22;7750;48.796;9.026;2023-08-06T23:23:50;14.90;85.30
15298;DHT22;7750;48.796;9.026;2023-08-06T23:35:22;14.80;84.80
15298;DHT22;7750;48.796;9.026;2023-08-06T23:40:34;14.90;85.00
15298;DHT22;7750;48.796;9.026;2023-08-06T23:45:55;14.80;84.50
15298;DHT22;7750;48.796;9.026;2023-08-06T23:51:24;14.80;84.50
15298;DHT22;7750;48.796;9.026;2023-08-06T23:56:25;14.80;84.40
